createdAt,value
2018-06-14T00:01:46.926Z,78.87
2018-06-14T00:03:52.028Z,79.00
2018-06-14T00:05:56.802Z,79.26
2018-06-14T00:08:01.881Z,79.68
2018-06-14T00:10:07.003Z,79.04
2018-06-14T00:12:12.131Z,79.49
2018-06-14T00:14:17.225Z,79.58
2018-06-14T00:16:22.207Z,79.93
2018-06-14T00:18:27.058Z,80.07
2018-06-14T00:20:31.964Z,80.09
2018-06-14T00:22:36.884Z,80.31
2018-06-14T00:24:41.865Z,80.87
2018-06-14T00:26:46.864Z,81.04
2018-06-14T00:28:51.816Z,80.65
2018-06-14T00:30:56.743Z,80.84
2018-06-14T00:33:01.759Z,81.21
2018-06-14T00:35:06.702Z,81.11
2018-06-14T00:37:11.625Z,81.11
2018-06-14T00:39:16.776Z,81.27
2018-06-14T00:41:21.675Z,81.42
2018-06-14T00:43:26.742Z,81.58
2018-06-14T00:45:31.677Z,81.68
2018-06-14T00:47:36.577Z,82.02
2018-06-14T00:49:41.533Z,81.71
2018-06-14T00:51:46.628Z,81.97
2018-06-14T00:53:51.678Z,81.59
2018-06-14T00:55:57.004Z,81.39
2018-06-14T00:58:02.022Z,81.77
2018-06-14T01:00:07.146Z,81.97
2018-06-14T01:02:12.060Z,81.73
2018-06-14T01:04:16.965Z,82.01
2018-06-14T01:06:21.841Z,81.52
2018-06-14T01:08:26.774Z,82.10
2018-06-14T01:10:31.923Z,81.93
2018-06-14T01:12:36.831Z,82.21
2018-06-14T01:14:41.970Z,81.88
2018-06-14T01:16:46.816Z,82.30
2018-06-14T01:18:51.985Z,82.40
2018-06-14T01:20:56.777Z,82.45
2018-06-14T01:23:01.616Z,82.50
2018-06-14T01:25:07.552Z,82.33
2018-06-14T01:27:12.797Z,81.74
2018-06-14T01:29:17.857Z,81.75
2018-06-14T01:31:22.741Z,81.74
2018-06-14T01:33:27.757Z,81.70
2018-06-14T01:35:32.612Z,81.80
2018-06-14T01:37:53.889Z,82.04
2018-06-14T01:39:58.533Z,81.97
2018-06-14T01:42:03.236Z,82.34
2018-06-14T01:44:08.322Z,82.46
2018-06-14T01:46:13.419Z,82.81
2018-06-14T01:48:18.759Z,82.83
2018-06-14T01:50:23.543Z,82.48
2018-06-14T01:52:28.429Z,82.54
2018-06-14T01:54:33.306Z,82.66
2018-06-14T01:56:38.074Z,82.78
2018-06-14T01:58:42.794Z,82.73
2018-06-14T02:00:47.787Z,82.79
2018-06-14T02:02:53.355Z,83.17
2018-06-14T02:04:58.298Z,83.32
2018-06-14T02:07:03.093Z,83.25
2018-06-14T02:09:09.823Z,82.99
2018-06-14T02:11:14.689Z,83.52
2018-06-14T02:13:19.712Z,83.02
2018-06-14T02:15:24.497Z,82.56
2018-06-14T02:17:29.351Z,82.69
2018-06-14T02:19:34.221Z,83.10
2018-06-14T02:21:39.176Z,82.80
2018-06-14T02:23:44.091Z,83.27
2018-06-14T02:25:49.167Z,83.13
2018-06-14T02:27:54.145Z,82.97
2018-06-14T02:29:59.186Z,83.36
2018-06-14T02:32:04.145Z,83.38
2018-06-14T02:34:09.067Z,83.15
2018-06-14T02:36:14.201Z,83.21
2018-06-14T02:38:21.793Z,82.80
2018-06-14T02:40:26.785Z,83.04
2018-06-14T02:42:31.709Z,82.71
2018-06-14T02:44:36.698Z,83.09
2018-06-14T02:46:41.642Z,82.94
2018-06-14T02:48:46.601Z,83.35
2018-06-14T02:50:52.283Z,82.83
2018-06-14T02:52:57.220Z,82.50
2018-06-14T02:55:02.391Z,82.64
2018-06-14T02:57:07.385Z,82.87
2018-06-14T02:59:12.419Z,82.44
2018-06-14T03:01:17.429Z,82.30
2018-06-14T03:03:22.367Z,82.05
2018-06-14T03:05:27.237Z,82.14
2018-06-14T03:07:33.483Z,81.94
2018-06-14T03:09:38.365Z,82.32
2018-06-14T03:11:43.138Z,82.38
2018-06-14T03:13:47.892Z,82.64
2018-06-14T03:15:52.882Z,82.01
2018-06-14T03:17:57.769Z,82.46
2018-06-14T03:20:02.746Z,82.86
2018-06-14T03:22:07.660Z,82.99
2018-06-14T03:24:12.614Z,82.58
2018-06-14T03:26:17.508Z,83.07
2018-06-14T03:28:22.591Z,82.99
2018-06-14T03:30:27.714Z,83.58
2018-06-14T03:32:32.551Z,83.74
2018-06-14T03:34:37.374Z,83.60
2018-06-14T03:36:42.372Z,83.77
2018-06-14T03:38:47.219Z,83.91
2018-06-14T03:40:52.000Z,84.45
2018-06-14T03:42:56.901Z,84.40
2018-06-14T03:45:01.799Z,84.19
2018-06-14T03:47:08.096Z,83.87
2018-06-14T03:49:13.214Z,83.20
2018-06-14T03:51:18.057Z,83.19
2018-06-14T03:53:22.820Z,83.64
2018-06-14T03:55:27.585Z,82.99
2018-06-14T03:57:32.477Z,83.30
2018-06-14T03:59:37.368Z,83.54
2018-06-14T04:01:42.225Z,83.05
2018-06-14T04:03:47.007Z,83.31
2018-06-14T04:05:52.042Z,82.86
2018-06-14T04:07:56.926Z,83.27
2018-06-14T04:10:01.973Z,82.63
2018-06-14T04:12:06.952Z,82.50
2018-06-14T04:14:12.048Z,82.26
2018-06-14T04:16:17.120Z,82.19
2018-06-14T04:18:21.976Z,81.66
2018-06-14T04:20:26.940Z,82.10
2018-06-14T04:22:31.847Z,80.37
2018-06-14T04:24:37.016Z,80.61
2018-06-14T04:26:42.047Z,80.62
2018-06-14T04:28:46.971Z,80.73
2018-06-14T04:30:52.299Z,80.59
2018-06-14T04:32:57.278Z,80.36
2018-06-14T04:35:02.224Z,79.82
2018-06-14T04:37:07.313Z,80.34
2018-06-14T04:39:12.487Z,79.90
2018-06-14T04:41:17.350Z,78.89
2018-06-14T04:43:22.143Z,78.91
2018-06-14T04:45:27.104Z,79.00
2018-06-14T04:47:32.103Z,79.42
2018-06-14T04:49:37.309Z,79.70
2018-06-14T04:51:42.257Z,79.74
2018-06-14T04:53:47.383Z,79.37
2018-06-14T04:55:52.310Z,79.62
2018-06-14T04:57:57.333Z,79.69
2018-06-14T05:00:02.269Z,79.37
2018-06-14T05:02:07.416Z,78.27
2018-06-14T05:04:12.469Z,78.38
2018-06-14T05:06:17.547Z,79.13
2018-06-14T05:08:24.398Z,78.94
2018-06-14T05:10:30.063Z,79.48
2018-06-14T05:12:34.955Z,78.89
2018-06-14T05:14:39.881Z,78.33
2018-06-14T05:16:44.565Z,77.64
2018-06-14T05:18:49.744Z,77.27
2018-06-14T05:20:54.816Z,77.76
2018-06-14T05:22:59.688Z,76.98
2018-06-14T05:25:04.691Z,77.18
2018-06-14T05:27:09.550Z,77.83
2018-06-14T05:29:14.586Z,77.68
2018-06-14T05:31:19.636Z,77.59
2018-06-14T05:33:24.559Z,77.46
2018-06-14T05:35:29.761Z,77.75
2018-06-14T05:37:34.906Z,77.09
2018-06-14T05:39:40.124Z,76.74
2018-06-14T05:41:44.909Z,75.78
2018-06-14T05:43:49.782Z,75.76
2018-06-14T05:45:54.613Z,76.08
2018-06-14T05:47:59.657Z,75.43
2018-06-14T05:50:04.719Z,75.18
2018-06-14T05:52:20.027Z,75.38
2018-06-14T05:56:52.924Z,75.07
2018-06-14T05:58:57.902Z,75.42
2018-06-14T06:01:02.634Z,74.11
2018-06-14T06:03:07.705Z,74.32
2018-06-14T06:05:12.496Z,74.06
2018-06-14T06:07:17.464Z,74.30
2018-06-14T06:09:22.531Z,74.11
2018-06-14T06:11:27.376Z,74.26
2018-06-14T06:13:32.465Z,74.85
2018-06-14T06:15:37.423Z,74.62
2018-06-14T06:17:42.333Z,74.00
2018-06-14T06:19:47.299Z,72.81
2018-06-14T06:21:52.210Z,72.65
2018-06-14T06:23:57.212Z,72.99
2018-06-14T06:26:01.954Z,72.88
2018-06-14T06:28:06.908Z,73.00
2018-06-14T06:30:12.209Z,71.93
2018-06-14T06:32:17.296Z,73.20
2018-06-14T06:34:22.565Z,73.11
2018-06-14T06:36:27.568Z,71.67
2018-06-14T06:38:32.391Z,72.37
2018-06-14T06:40:37.199Z,73.17
2018-06-14T06:42:42.219Z,72.23
2018-06-14T06:44:47.144Z,72.25
2018-06-14T06:46:51.964Z,73.22
2018-06-14T06:48:56.984Z,73.39
2018-06-14T06:51:02.233Z,72.90
2018-06-14T06:53:07.168Z,73.35
2018-06-14T06:55:11.892Z,72.58
2018-06-14T06:57:16.967Z,72.96
2018-06-14T06:59:22.007Z,72.42
2018-06-14T07:01:27.088Z,72.66
2018-06-14T07:03:32.106Z,72.15
2018-06-14T07:05:37.004Z,70.82
2018-06-14T07:07:42.069Z,70.99
2018-06-14T07:09:47.052Z,70.26
2018-06-14T07:11:52.125Z,70.82
2018-06-14T07:13:57.194Z,69.96
2018-06-14T07:16:02.295Z,69.14
2018-06-14T07:18:07.463Z,66.99
2018-06-14T07:20:12.317Z,67.91
2018-06-14T07:22:17.462Z,67.41
2018-06-14T07:24:24.633Z,67.78
2018-06-14T07:26:29.896Z,67.36
2018-06-14T07:28:34.939Z,65.74
2018-06-14T07:30:39.943Z,66.32
2018-06-14T07:32:44.990Z,66.76
2018-06-14T07:34:49.834Z,67.09
2018-06-14T07:36:55.161Z,67.18
2018-06-14T07:39:00.096Z,66.58
2018-06-14T07:41:08.107Z,66.84
2018-06-14T07:43:13.500Z,67.75
2018-06-14T07:45:18.528Z,67.29
2018-06-14T07:47:23.604Z,67.87
2018-06-14T07:49:28.492Z,67.93
2018-06-14T07:51:34.974Z,66.84
2018-06-14T07:53:40.021Z,66.10
2018-06-14T07:55:45.040Z,66.38
2018-06-14T07:57:49.993Z,66.03
2018-06-14T07:59:54.886Z,66.52
2018-06-14T08:01:59.898Z,66.78
2018-06-14T08:04:04.901Z,65.58
2018-06-14T08:06:10.198Z,66.43
2018-06-14T08:08:15.236Z,65.87
2018-06-14T08:10:20.368Z,65.27
2018-06-14T08:12:26.170Z,63.49
2018-06-14T08:14:31.052Z,63.25
2018-06-14T08:16:36.286Z,62.63
2018-06-14T08:18:41.195Z,62.63
2018-06-14T08:20:46.185Z,63.68
2018-06-14T08:22:51.263Z,63.07
2018-06-14T08:24:56.257Z,62.65
2018-06-14T08:27:01.425Z,62.93
2018-06-14T08:29:06.446Z,62.70
2018-06-14T08:31:11.736Z,62.84
2018-06-14T08:33:17.030Z,61.98
2018-06-14T08:35:22.037Z,61.64
2018-06-14T08:37:29.965Z,59.26
2018-06-14T08:39:35.160Z,57.56
2018-06-14T08:41:40.248Z,56.51
2018-06-14T08:43:45.232Z,55.58
2018-06-14T08:45:50.307Z,54.58
2018-06-14T08:47:55.372Z,53.28
2018-06-14T08:50:00.425Z,51.21
2018-06-14T08:52:05.300Z,49.44
2018-06-14T08:54:10.356Z,50.13
2018-06-14T08:56:15.448Z,50.42
2018-06-14T08:58:20.546Z,49.10
2018-06-14T09:00:25.876Z,49.70
2018-06-14T09:02:31.044Z,48.67
2018-06-14T09:04:38.456Z,48.80
2018-06-14T09:06:43.522Z,49.70
2018-06-14T09:08:48.764Z,48.38
2018-06-14T09:10:53.858Z,48.53
2018-06-14T09:12:59.018Z,48.96
2018-06-14T09:15:04.276Z,49.73
2018-06-14T09:17:09.415Z,50.14
2018-06-14T09:19:14.495Z,50.98
2018-06-14T09:21:19.564Z,50.94
2018-06-14T09:23:24.819Z,51.14
2018-06-14T09:25:29.720Z,51.40
2018-06-14T09:27:35.060Z,50.40
2018-06-14T09:29:40.169Z,49.62
2018-06-14T09:31:45.337Z,48.75
2018-06-14T09:33:50.600Z,48.20
2018-06-14T09:35:55.713Z,47.32
2018-06-14T09:38:00.921Z,46.50
2018-06-14T09:40:06.242Z,46.88
2018-06-14T09:42:11.308Z,47.57
2018-06-14T09:44:16.232Z,47.85
2018-06-14T09:46:21.255Z,46.73
2018-06-14T09:48:26.584Z,46.87
2018-06-14T09:50:31.649Z,46.58
2018-06-14T09:52:36.679Z,44.26
2018-06-14T09:54:41.975Z,45.70
2018-06-14T09:56:47.578Z,46.65
2018-06-14T09:58:55.437Z,44.97
2018-06-14T10:01:00.939Z,45.56
2018-06-14T10:03:06.536Z,46.38
2018-06-14T10:05:11.830Z,45.78
2018-06-14T10:07:17.324Z,44.59
2018-06-14T10:09:22.543Z,43.58
2018-06-14T10:11:28.644Z,45.13
2018-06-14T10:13:33.890Z,45.74
2018-06-14T10:15:39.153Z,45.98
2018-06-14T10:17:44.693Z,44.80
2018-06-14T10:19:49.997Z,45.08
2018-06-14T10:21:55.201Z,44.80
2018-06-14T10:24:00.666Z,42.32
2018-06-14T10:26:05.763Z,42.82
2018-06-14T10:28:11.003Z,43.32
2018-06-14T10:30:16.202Z,42.19
2018-06-14T10:32:21.181Z,44.15
2018-06-14T10:34:26.294Z,43.47
2018-06-14T10:36:31.182Z,39.06
2018-06-14T10:38:36.518Z,39.92
2018-06-14T10:40:41.696Z,40.53
2018-06-14T10:42:46.927Z,41.93
2018-06-14T10:44:51.905Z,40.75
2018-06-14T10:46:56.964Z,41.06
2018-06-14T10:49:01.915Z,41.96
2018-06-14T10:51:07.248Z,43.00
2018-06-14T10:53:12.412Z,42.50
2018-06-14T10:55:17.562Z,40.61
2018-06-14T10:57:22.612Z,42.51
2018-06-14T10:59:27.901Z,42.16
2018-06-14T11:01:33.041Z,41.00
2018-06-14T11:03:38.069Z,40.19
2018-06-14T11:05:43.237Z,41.92
2018-06-14T11:07:48.743Z,40.93
2018-06-14T11:09:53.777Z,39.79
2018-06-14T11:11:58.669Z,41.30
2018-06-14T11:14:03.932Z,41.87
2018-06-14T11:16:11.000Z,40.74
2018-06-14T11:18:22.764Z,42.21
2018-06-14T11:20:30.085Z,41.33
2018-06-14T11:22:37.413Z,41.31
2018-06-14T11:24:45.378Z,41.04
2018-06-14T11:26:53.427Z,41.25
2018-06-14T11:28:58.449Z,40.89
2018-06-14T11:31:03.449Z,40.10
2018-06-14T11:33:08.415Z,40.14
2018-06-14T11:35:13.481Z,39.24
2018-06-14T11:37:18.549Z,39.37
2018-06-14T11:39:23.465Z,39.47
2018-06-14T11:41:30.218Z,40.86
2018-06-14T11:43:35.302Z,41.39
2018-06-14T11:45:40.469Z,39.51
2018-06-14T11:47:45.683Z,40.38
2018-06-14T11:49:50.778Z,41.00
2018-06-14T11:51:55.966Z,40.14
2018-06-14T11:54:01.040Z,38.97
2018-06-14T11:56:06.161Z,38.29
2018-06-14T11:58:11.209Z,38.51
2018-06-14T12:00:16.335Z,40.44
2018-06-14T12:02:22.474Z,40.92
2018-06-14T12:04:27.347Z,40.76
2018-06-14T12:06:32.243Z,39.06
2018-06-14T12:08:37.319Z,44.78
2018-06-14T12:10:42.507Z,44.05
2018-06-14T12:12:47.449Z,42.28
2018-06-14T12:14:52.512Z,44.22
2018-06-14T12:16:57.533Z,40.96
2018-06-14T12:19:02.554Z,41.41
2018-06-14T12:21:07.673Z,43.62
2018-06-14T12:23:12.737Z,42.61
2018-06-14T12:25:17.793Z,42.59
2018-06-14T12:27:22.798Z,41.28
2018-06-14T12:29:27.715Z,40.38
2018-06-14T12:31:32.895Z,42.20
2018-06-14T12:33:37.892Z,40.70
2018-06-14T12:35:42.932Z,40.59
2018-06-14T12:37:48.280Z,41.68
2018-06-14T12:39:53.218Z,41.16
2018-06-14T12:41:58.174Z,40.73
2018-06-14T12:44:03.302Z,41.07
2018-06-14T12:46:08.176Z,42.78
2018-06-14T12:48:13.151Z,39.80
2018-06-14T12:50:18.252Z,40.75
2018-06-14T12:52:23.503Z,39.78
2018-06-14T12:54:28.594Z,40.83
2018-06-14T12:56:33.486Z,40.87
2018-06-14T12:58:41.019Z,41.04
2018-06-14T13:00:46.074Z,40.71
2018-06-14T13:02:51.035Z,41.33
2018-06-14T13:04:55.983Z,41.24
2018-06-14T13:07:01.028Z,40.38
2018-06-14T13:09:08.752Z,40.79
2018-06-14T13:11:13.800Z,39.75
2018-06-14T13:13:19.099Z,41.23
2018-06-14T13:15:24.072Z,40.47
2018-06-14T13:17:29.053Z,38.97
2018-06-14T13:19:34.172Z,39.37
2018-06-14T13:21:39.326Z,40.47
2018-06-14T13:23:44.274Z,40.01
2018-06-14T13:25:49.462Z,40.33
2018-06-14T13:27:54.576Z,40.44
2018-06-14T13:29:59.701Z,40.01
2018-06-14T13:32:05.444Z,41.08
2018-06-14T13:34:10.603Z,40.45
2018-06-14T13:36:15.733Z,39.63
2018-06-14T13:38:20.807Z,40.82
2018-06-14T13:40:25.849Z,41.07
2018-06-14T13:42:30.926Z,40.91
2018-06-14T13:44:35.966Z,40.12
2018-06-14T13:46:42.029Z,42.10
2018-06-14T13:48:47.134Z,41.02
2018-06-14T13:50:52.115Z,41.37
2018-06-14T13:52:57.189Z,42.40
2018-06-14T13:55:02.108Z,42.60
2018-06-14T13:57:07.211Z,43.37
2018-06-14T13:59:12.254Z,43.15
2018-06-14T14:01:17.289Z,42.82
2018-06-14T14:03:22.226Z,43.17
2018-06-14T14:05:27.136Z,44.91
2018-06-14T14:07:32.229Z,44.35
2018-06-14T14:09:37.144Z,44.54
2018-06-14T14:11:42.325Z,44.35
2018-06-14T14:13:47.384Z,43.45
2018-06-14T14:15:52.366Z,44.53
2018-06-14T14:17:57.368Z,44.58
2018-06-14T14:20:02.376Z,44.90
2018-06-14T14:22:07.714Z,44.18
2018-06-14T14:24:12.620Z,45.05
2018-06-14T14:26:17.889Z,45.36
2018-06-14T14:28:22.885Z,46.57
2018-06-14T14:30:28.222Z,47.57
2018-06-14T14:32:33.487Z,48.68
2018-06-14T14:34:38.676Z,47.68
2018-06-14T14:36:43.897Z,48.30
2018-06-14T14:38:48.945Z,49.07
2018-06-14T14:40:53.892Z,48.81
2018-06-14T14:42:59.045Z,50.89
2018-06-14T14:45:04.043Z,50.73
2018-06-14T14:47:09.138Z,52.09
2018-06-14T14:49:14.013Z,53.90
2018-06-14T14:51:19.160Z,55.06
2018-06-14T14:53:24.085Z,55.47
2018-06-14T14:55:29.017Z,56.98
2018-06-14T14:57:34.076Z,56.35
2018-06-14T14:59:39.076Z,58.18
2018-06-14T15:01:44.443Z,57.74
2018-06-14T15:03:49.508Z,57.82
2018-06-14T15:05:54.462Z,59.52
2018-06-14T15:07:59.420Z,59.64
2018-06-14T15:10:04.415Z,58.93
2018-06-14T15:12:09.574Z,60.69
2018-06-14T15:14:14.775Z,62.04
2018-06-14T15:16:19.993Z,62.58
2018-06-14T15:18:25.072Z,63.30
2018-06-14T15:20:30.045Z,64.26
2018-06-14T15:22:35.132Z,65.42
2018-06-14T15:24:40.538Z,64.05
2018-06-14T15:26:45.777Z,65.95
2018-06-14T15:28:50.750Z,65.92
2018-06-14T15:30:55.854Z,65.50
2018-06-14T15:33:00.971Z,65.91
2018-06-14T15:35:06.007Z,66.14
2018-06-14T15:37:11.368Z,64.19
2018-06-14T15:39:16.255Z,65.57
2018-06-14T15:41:21.591Z,66.34
2018-06-14T15:43:26.773Z,67.07
2018-06-14T15:45:31.737Z,67.81
2018-06-14T15:47:36.840Z,67.94
2018-06-14T15:49:41.692Z,69.26
2018-06-14T15:51:46.792Z,69.55
2018-06-14T15:53:51.750Z,68.97
2018-06-14T15:56:42.115Z,69.86
2018-06-14T15:58:47.603Z,70.27
2018-06-14T16:00:52.921Z,69.27
2018-06-14T16:02:57.886Z,70.69
2018-06-14T16:05:03.005Z,70.56
2018-06-14T16:07:07.885Z,70.39
2018-06-14T16:09:13.255Z,71.77
2018-06-14T16:11:18.327Z,72.58
2018-06-14T16:13:23.410Z,72.05
2018-06-14T16:15:28.457Z,71.49
2018-06-14T16:17:33.463Z,71.85
2018-06-14T16:19:38.341Z,73.53
2018-06-14T16:21:43.424Z,73.93
2018-06-14T16:23:48.641Z,73.12
2018-06-14T16:25:53.896Z,75.40
2018-06-14T16:27:59.124Z,74.76
2018-06-14T16:30:04.204Z,75.22
2018-06-14T16:32:09.437Z,75.99
2018-06-14T16:34:14.687Z,75.69
2018-06-14T16:36:19.580Z,76.23
2018-06-14T16:38:24.662Z,76.70
2018-06-14T16:40:29.608Z,77.34
2018-06-14T16:42:34.481Z,77.09
2018-06-14T16:44:39.596Z,78.07
2018-06-14T16:46:44.661Z,78.72
2018-06-14T16:48:49.675Z,77.80
2018-06-14T16:50:54.719Z,78.79
2018-06-14T16:52:59.876Z,79.86
2018-06-14T16:55:04.859Z,79.31
2018-06-14T16:57:09.849Z,79.24
2018-06-14T16:59:14.828Z,78.86
2018-06-14T17:01:19.910Z,78.85
2018-06-14T17:03:25.057Z,79.17
2018-06-14T17:05:30.249Z,78.98
2018-06-14T17:07:35.171Z,79.00
2018-06-14T17:09:40.205Z,78.89
2018-06-14T17:11:50.630Z,79.13
2018-06-14T17:13:55.804Z,79.53
2018-06-14T17:16:01.081Z,80.26
2018-06-14T17:18:06.307Z,79.98
2018-06-14T17:20:11.429Z,79.74
2018-06-14T17:22:16.468Z,79.75
2018-06-14T17:24:21.254Z,79.18
2018-06-14T17:26:26.389Z,79.39
2018-06-14T17:28:31.400Z,79.53
2018-06-14T17:30:36.374Z,80.48
2018-06-14T17:32:41.392Z,80.24
2018-06-14T17:34:46.387Z,79.60
2018-06-14T17:36:51.512Z,80.09
2018-06-14T17:38:56.734Z,80.05
2018-06-14T17:41:02.075Z,79.33
2018-06-14T17:43:06.910Z,79.36
2018-06-14T17:45:12.051Z,79.29
2018-06-14T17:47:17.232Z,79.19
2018-06-14T17:49:22.499Z,78.57
2018-06-14T17:51:27.629Z,78.66
2018-06-14T17:53:32.703Z,78.25
2018-06-14T17:55:37.815Z,78.71
2018-06-14T17:57:42.891Z,78.77
2018-06-14T17:59:48.232Z,78.04
2018-06-14T18:01:53.576Z,78.14
2018-06-14T18:03:58.680Z,78.62
2018-06-14T18:06:04.298Z,78.90
2018-06-14T18:08:09.046Z,78.86
2018-06-14T18:10:14.274Z,78.40
2018-06-14T18:12:19.292Z,77.87
2018-06-14T18:14:24.638Z,76.93
2018-06-14T18:16:40.237Z,76.81
2018-06-14T18:18:45.428Z,76.28
2018-06-14T18:20:50.564Z,75.80
2018-06-14T18:22:55.677Z,76.64
2018-06-14T18:25:07.818Z,76.45
2018-06-14T18:27:22.367Z,75.92
2018-06-14T18:29:27.415Z,75.75
2018-06-14T18:31:32.772Z,76.09
2018-06-14T18:33:45.509Z,76.35
2018-06-14T18:35:50.532Z,75.72
2018-06-14T18:37:55.526Z,75.74
2018-06-14T18:40:00.764Z,74.59
2018-06-14T18:42:05.925Z,75.52
2018-06-14T18:44:10.915Z,75.70
2018-06-14T18:46:16.010Z,75.16
2018-06-14T18:48:20.892Z,75.62
2018-06-14T18:50:25.915Z,75.41
2018-06-14T18:52:31.035Z,75.50
2018-06-14T18:54:36.111Z,75.66
2018-06-14T18:56:41.653Z,76.31
2018-06-14T18:58:47.210Z,77.13
2018-06-14T19:00:52.242Z,77.55
2018-06-14T19:02:57.408Z,77.41
2018-06-14T19:05:02.533Z,77.18
2018-06-14T19:07:07.934Z,77.76
2018-06-14T19:09:12.993Z,78.12
2018-06-14T19:11:18.017Z,78.09
2018-06-14T19:13:23.214Z,77.37
2018-06-14T19:15:28.301Z,77.62
2018-06-14T19:17:33.687Z,77.95
2018-06-14T19:19:38.632Z,77.54
2018-06-14T19:21:44.805Z,78.49
2018-06-14T19:23:50.362Z,78.70
2018-06-14T19:25:55.688Z,78.25
2018-06-14T19:28:00.993Z,78.15
2018-06-14T19:30:06.078Z,79.29
2018-06-14T19:32:11.362Z,79.53
2018-06-14T19:34:16.602Z,79.38
2018-06-14T19:36:21.881Z,79.17
2018-06-14T19:38:27.277Z,79.52
2018-06-14T19:40:32.474Z,79.25
2018-06-14T19:42:38.198Z,78.95
2018-06-14T19:44:43.253Z,79.35
2018-06-14T19:46:48.772Z,79.60
2018-06-14T19:48:54.348Z,80.04
2018-06-14T19:51:00.515Z,79.55
2018-06-14T19:53:05.732Z,79.71
2018-06-14T19:55:11.193Z,80.36
2018-06-14T19:57:16.180Z,80.22
2018-06-14T19:59:21.500Z,81.24
2018-06-14T20:01:26.719Z,80.14
2018-06-14T20:03:31.765Z,80.09
2018-06-14T20:05:36.827Z,80.61
2018-06-14T20:07:42.012Z,80.62
2018-06-14T20:09:46.918Z,81.06
2018-06-14T20:11:51.875Z,81.28
2018-06-14T20:13:56.855Z,81.47
2018-06-14T20:16:02.461Z,80.63
2018-06-14T20:18:07.719Z,81.38
2018-06-14T20:20:13.038Z,80.76
2018-06-14T20:22:18.402Z,80.54
2018-06-14T20:24:23.507Z,80.97
2018-06-14T20:26:29.147Z,80.44
2018-06-14T20:28:34.217Z,80.51
2018-06-14T20:30:40.030Z,80.69
2018-06-14T20:32:45.282Z,80.77
2018-06-14T20:34:50.461Z,80.90
2018-06-14T20:36:56.022Z,80.56
2018-06-14T20:39:01.694Z,80.90
2018-06-14T20:41:09.061Z,81.25
2018-06-14T20:43:22.350Z,80.68
2018-06-14T20:45:27.577Z,80.36
2018-06-14T20:47:34.018Z,80.30
2018-06-14T20:49:39.349Z,78.59
2018-06-14T20:51:44.907Z,79.22
2018-06-14T20:53:50.067Z,78.86
2018-06-14T20:55:56.054Z,78.76
2018-06-14T20:58:03.363Z,78.81
2018-06-14T21:00:08.861Z,80.07
2018-06-14T21:02:14.345Z,82.05
2018-06-14T21:04:19.512Z,80.48
2018-06-14T21:06:25.464Z,80.77
2018-06-14T21:08:30.665Z,82.82
2018-06-14T21:10:35.864Z,83.70
2018-06-14T21:12:41.042Z,84.78
2018-06-14T21:14:46.161Z,85.05
2018-06-14T21:16:51.836Z,86.14
2018-06-14T21:18:57.403Z,85.96
2018-06-14T21:21:02.665Z,85.23
2018-06-14T21:23:08.105Z,84.97
2018-06-14T21:25:13.748Z,85.02
2018-06-14T21:27:18.755Z,85.31
2018-06-14T21:29:24.627Z,84.76
2018-06-14T21:31:30.010Z,84.95
2018-06-14T21:33:35.288Z,85.15
2018-06-14T21:35:40.273Z,85.13
2018-06-14T21:37:45.661Z,85.58
2018-06-14T21:39:50.583Z,84.85
2018-06-14T21:41:55.653Z,84.29
2018-06-14T21:44:03.116Z,84.21
2018-06-14T21:46:08.249Z,84.29
2018-06-14T21:48:13.655Z,83.57
2018-06-14T21:50:18.668Z,83.91
2018-06-14T21:52:23.596Z,84.16
2018-06-14T21:54:29.196Z,83.67
2018-06-14T21:56:34.561Z,83.73
2018-06-14T21:58:39.672Z,84.64
2018-06-14T22:00:44.817Z,84.54
2018-06-14T22:02:56.007Z,84.92
2018-06-14T22:05:01.066Z,84.78
2018-06-14T22:07:06.104Z,84.23
2018-06-14T22:09:10.855Z,83.78
2018-06-14T22:11:15.760Z,84.64
2018-06-14T22:13:20.881Z,84.87
2018-06-14T22:15:25.887Z,84.28
2018-06-14T22:17:30.843Z,84.33
2018-06-14T22:19:35.982Z,84.17
2018-06-14T22:21:41.295Z,83.89
2018-06-14T22:23:46.472Z,84.73
2018-06-14T22:25:51.919Z,84.33
2018-06-14T22:27:58.809Z,84.81
2018-06-14T22:30:05.160Z,84.74
2018-06-14T22:32:10.276Z,83.62
2018-06-14T22:34:31.549Z,83.21
2018-06-14T22:36:36.481Z,84.00
2018-06-14T22:38:41.613Z,83.18
2018-06-14T22:40:46.647Z,82.90
2018-06-14T22:42:51.941Z,83.19
2018-06-14T22:44:57.144Z,82.81
2018-06-14T22:47:02.055Z,82.94
2018-06-14T22:49:07.253Z,83.94
2018-06-14T22:51:20.656Z,83.29
2018-06-14T22:53:25.700Z,83.23
2018-06-14T22:55:30.726Z,81.67
2018-06-14T22:57:35.867Z,82.57
2018-06-14T22:59:40.928Z,81.66
2018-06-14T23:01:48.845Z,82.31
2018-06-14T23:03:53.863Z,82.81
2018-06-14T23:05:58.845Z,83.40
2018-06-14T23:08:03.790Z,83.51
2018-06-14T23:10:26.388Z,83.26
2018-06-14T23:12:31.585Z,83.25
2018-06-14T23:14:36.711Z,83.45
2018-06-14T23:16:41.767Z,83.72
2018-06-14T23:18:46.721Z,83.83
2018-06-14T23:20:52.260Z,82.77
2018-06-14T23:22:58.302Z,81.75
2018-06-14T23:25:03.181Z,83.00
2018-06-14T23:27:08.326Z,83.34
2018-06-14T23:29:13.265Z,83.88
2018-06-14T23:31:18.285Z,83.70
2018-06-14T23:33:23.271Z,83.70
2018-06-14T23:35:28.165Z,84.63
2018-06-14T23:37:33.125Z,84.04
2018-06-14T23:39:38.254Z,84.25
2018-06-14T23:41:43.214Z,83.88
2018-06-14T23:43:48.322Z,84.82
2018-06-14T23:45:53.388Z,84.23
2018-06-14T23:47:58.374Z,84.67
2018-06-14T23:50:03.395Z,84.69
2018-06-14T23:52:08.559Z,84.22
2018-06-14T23:54:13.599Z,84.45
2018-06-14T23:56:18.570Z,84.09
2018-06-14T23:58:23.608Z,84.67
